Strait of Georgia - north of Nanaimo: Past 24 Hour Conditions

 

La Perouse Bank - 46206

03:00 AM PDT 20 August 2014Buoy position: 48.83N 126.0W
This table is a summary of hourly weather conditions for the past 24 hours.
Date / Time
(PDT)
Wind(knots) Wave height(m) Wave period(s) Pressure(kPa) Air tempC) Water tempC)
20 August 2014
3:00 ESE 12 gust 16 1.7 7.0 101.1 13 15
2:00 E 8 gust 12 2.0 7.0 101.1 14 15
1:00 WNW 4 gust 4 2.0 8.0 101.1 14 15
0:00 WNW 6 gust 8 2.1 7.0 101.0 14 15
19 August 2014
23:00 WNW 10 gust 12 2.0 8.0 101.0 14 15
22:00 WNW 10 gust 14 2.0 8.0 101.0 15 15
21:00 W 12 gust 16 1.9 7.0 101.0 15 15
20:00 WNW 14 gust 16 2.0 7.0 101.0 15 15
19:00 WNW 14 gust 16 2.0 7.0 101.0 15 15
18:00 WNW 14 gust 16 2.0 8.0 101.0 15 15
17:00 WNW 14 gust 16 1.9 7.0 101.1 15 15
16:00 W 16 gust 19 1.7 6.0 101.1 15 15
15:00 W 14 gust 18 1.7 6.0 101.1 15 15
14:00 W 14 gust 16 1.7 11.0 101.1 15 14
13:00 W 16 gust 19 1.7 11.0 101.1 15 14
12:00 W 18 gust 19 1.7 11.0 101.1 15 14
11:00 W 16 gust 19 1.8 11.0 101.1 15 15
10:00 WNW 18 gust 19 1.7 10.0 101.1 15 14
9:00 WNW 19 gust 23 1.8 11.0 101.1 15 14
8:00 WNW 16 gust 19 2.0 12.0 101.1 15 14
7:00 WNW 18 gust 21 2.3 6.0 101.1 15 14
6:00 WNW 23 gust 27 2.2 7.0 101.0 15 14
5:00 WNW 19 gust 23 2.1 7.0 101.1 15 14
4:00 WNW 19 gust 25 2.2 6.0 101.0 15 14
3:00 WNW 23 gust 29 2.2 6.0 101.1 15 14
 
Map of Pacific - South Coast marine weather areas Tsawwassen Ferry Terminal South Nomad - 46036 Sentry Shoal - 46131 South Brooks - 46132 Halibut Bank - 46146 South Moresby - 46147 South Hecate Strait - 46185 West Sea Otter - 46204 La Perouse Bank - 46206 East Dellwood - 46207 Discovery Island Esquimalt Harbour Kelp Reefs Malahat Race Rocks Lightstation Saturna Island Sheringham Point University of Victoria Victoria Gonzales Victoria Int'l Airport Ballenas Islands Campbell River Airport Comox Airport Entrance Island Fanny Island Nanaimo Airport Port Hardy Airport Sisters Islets Estevan Point Sartine Island Solander Island Tofino Airport Grief Point Powell River Airport Sechelt Cape St.James Bella Bella Airport Bella Coola Airport Cathedral Point Herbert Island Point Atkinson Sand Heads Lightstation Vancouver Harbour Vancouver Int'l Airport West Vancouver Port Alberni Howe Sound - Pam Rocks Squamish Airport